<?xml version="1.0" encoding="UTF-8" standalone="no" ?>
<gpx xmlns="http://www.topografix.com/GPX/1/1" xmlns:xsi="http://www.w3.org/2001/XMLSchema-instance" xsi:schemaLocation="http://www.topografix.com/GPX/1/1 http://www.topografix.com/GPX/1/1/gpx.xsd" version="1.1" creator="VisuGPX - https://www.visugpx.com">
  <metadata>
    <name>Pleucadeuc_StMarc_18-22km</name>
    <desc><![CDATA[gnerando idor:7083279_8057708]]></desc>
  </metadata>
  <trk>
    <name><![CDATA[Pleucadeuc_StMarc_22.3km-7083279]]></name>
    <extensions>
      <line xmlns="http://www.topografix.com/GPX/gpx_style/0/2">
        <color>00FF00</color>
        <width>4</width>
      </line>
    </extensions>
    <trkseg>
      <trkpt lat="47.75891" lon="-2.37347">
        <ele>71</ele>
        <time>2023-11-11T05:49:00Z</time>
      </trkpt>
      <trkpt lat="47.76015" lon="-2.37279">
        <ele>67</ele>
        <time>2023-11-11T05:51:56Z</time>
      </trkpt>
      <trkpt lat="47.76047" lon="-2.37197">
        <ele>65</ele>
        <time>2023-11-11T05:53:21Z</time>
      </trkpt>
      <trkpt lat="47.7633" lon="-2.36935">
        <ele>60</ele>
        <time>2023-11-11T06:00:46Z</time>
      </trkpt>
      <trkpt lat="47.76474" lon="-2.36485">
        <ele>47</ele>
        <time>2023-11-11T06:08:13Z</time>
      </trkpt>
      <trkpt lat="47.76483" lon="-2.36064">
        <ele>28</ele>
        <time>2023-11-11T06:14:31Z</time>
      </trkpt>
      <trkpt lat="47.76408" lon="-2.35867">
        <ele>29</ele>
        <time>2023-11-11T06:17:54Z</time>
      </trkpt>
      <trkpt lat="47.76578" lon="-2.35648">
        <ele>25</ele>
        <time>2023-11-11T06:22:54Z</time>
      </trkpt>
      <trkpt lat="47.76662" lon="-2.35253">
        <ele>22</ele>
        <time>2023-11-11T06:29:06Z</time>
      </trkpt>
      <trkpt lat="47.76815" lon="-2.35313">
        <ele>25</ele>
        <time>2023-11-11T06:32:37Z</time>
      </trkpt>
      <trkpt lat="47.7682" lon="-2.35227">
        <ele>20</ele>
        <time>2023-11-11T06:33:54Z</time>
      </trkpt>
      <trkpt lat="47.76881" lon="-2.35305">
        <ele>19</ele>
        <time>2023-11-11T06:35:42Z</time>
      </trkpt>
      <trkpt lat="47.77028" lon="-2.35154">
        <ele>11</ele>
        <time>2023-11-11T06:39:40Z</time>
      </trkpt>
      <trkpt lat="47.77129" lon="-2.35339">
        <ele>13</ele>
        <time>2023-11-11T06:43:14Z</time>
      </trkpt>
      <trkpt lat="47.77267" lon="-2.3533">
        <ele>17</ele>
        <time>2023-11-11T06:46:18Z</time>
      </trkpt>
      <trkpt lat="47.77374" lon="-2.3545">
        <ele>20</ele>
        <time>2023-11-11T06:49:17Z</time>
      </trkpt>
      <trkpt lat="47.77613" lon="-2.35446">
        <ele>34</ele>
        <time>2023-11-11T06:54:36Z</time>
      </trkpt>
      <trkpt lat="47.77729" lon="-2.35395">
        <ele>36</ele>
        <time>2023-11-11T06:57:17Z</time>
      </trkpt>
      <trkpt lat="47.77758" lon="-2.35506">
        <ele>32</ele>
        <time>2023-11-11T06:59:04Z</time>
      </trkpt>
      <trkpt lat="47.77853" lon="-2.35515">
        <ele>31</ele>
        <time>2023-11-11T07:01:11Z</time>
      </trkpt>
      <trkpt lat="47.78084" lon="-2.35339">
        <ele>47</ele>
        <time>2023-11-11T07:06:58Z</time>
      </trkpt>
      <trkpt lat="47.78294" lon="-2.35313">
        <ele>58</ele>
        <time>2023-11-11T07:11:39Z</time>
      </trkpt>
      <trkpt lat="47.78346" lon="-2.35395">
        <ele>65</ele>
        <time>2023-11-11T07:13:20Z</time>
      </trkpt>
      <trkpt lat="47.78421" lon="-2.35738">
        <ele>77</ele>
        <time>2023-11-11T07:18:43Z</time>
      </trkpt>
      <trkpt lat="47.78228" lon="-2.36171">
        <ele>68</ele>
        <time>2023-11-11T07:26:29Z</time>
      </trkpt>
      <trkpt lat="47.78548" lon="-2.36008">
        <ele>77</ele>
        <time>2023-11-11T07:34:01Z</time>
      </trkpt>
      <trkpt lat="47.78568" lon="-2.35841">
        <ele>81</ele>
        <time>2023-11-11T07:36:33Z</time>
      </trkpt>
      <trkpt lat="47.78654" lon="-2.35841">
        <ele>88</ele>
        <time>2023-11-11T07:38:27Z</time>
      </trkpt>
      <trkpt lat="47.78721" lon="-2.35901">
        <ele>86</ele>
        <time>2023-11-11T07:40:12Z</time>
      </trkpt>
      <trkpt lat="47.78882" lon="-2.35888">
        <ele>87</ele>
        <time>2023-11-11T07:43:47Z</time>
      </trkpt>
      <trkpt lat="47.79058" lon="-2.35991">
        <ele>74</ele>
        <time>2023-11-11T07:47:59Z</time>
      </trkpt>
      <trkpt lat="47.7909" lon="-2.35717">
        <ele>68</ele>
        <time>2023-11-11T07:52:09Z</time>
      </trkpt>
      <trkpt lat="47.79176" lon="-2.35601">
        <ele>62</ele>
        <time>2023-11-11T07:54:44Z</time>
      </trkpt>
      <trkpt lat="47.7979" lon="-2.36373">
        <ele>91</ele>
        <time>2023-11-11T08:12:36Z</time>
      </trkpt>
      <trkpt lat="47.79718" lon="-2.36588">
        <ele>88</ele>
        <time>2023-11-11T08:16:11Z</time>
      </trkpt>
      <trkpt lat="47.79776" lon="-2.36794">
        <ele>93</ele>
        <time>2023-11-11T08:19:32Z</time>
      </trkpt>
      <trkpt lat="47.79912" lon="-2.36729">
        <ele>103</ele>
        <time>2023-11-11T08:22:42Z</time>
      </trkpt>
      <trkpt lat="47.79995" lon="-2.36725">
        <ele>100</ele>
        <time>2023-11-11T08:24:33Z</time>
      </trkpt>
      <trkpt lat="47.79992" lon="-2.37266">
        <ele>98</ele>
        <time>2023-11-11T08:32:38Z</time>
      </trkpt>
      <trkpt lat="47.80131" lon="-2.37592">
        <ele>91</ele>
        <time>2023-11-11T08:38:24Z</time>
      </trkpt>
      <trkpt lat="47.80041" lon="-2.37656">
        <ele>90</ele>
        <time>2023-11-11T08:40:37Z</time>
      </trkpt>
      <trkpt lat="47.80024" lon="-2.38021">
        <ele>87</ele>
        <time>2023-11-11T08:46:05Z</time>
      </trkpt>
      <trkpt lat="47.79465" lon="-2.38133">
        <ele>65</ele>
        <time>2023-11-11T08:58:38Z</time>
      </trkpt>
      <trkpt lat="47.79251" lon="-2.38068">
        <ele>66</ele>
        <time>2023-11-11T09:03:29Z</time>
      </trkpt>
      <trkpt lat="47.79145" lon="-2.3809">
        <ele>70</ele>
        <time>2023-11-11T09:05:52Z</time>
      </trkpt>
      <trkpt lat="47.79237" lon="-2.39021">
        <ele>75</ele>
        <time>2023-11-11T09:19:56Z</time>
      </trkpt>
      <trkpt lat="47.78946" lon="-2.3939">
        <ele>67</ele>
        <time>2023-11-11T09:28:26Z</time>
      </trkpt>
      <trkpt lat="47.78928" lon="-2.39489">
        <ele>57</ele>
        <time>2023-11-11T09:29:58Z</time>
      </trkpt>
      <trkpt lat="47.78729" lon="-2.3951">
        <ele>32</ele>
        <time>2023-11-11T09:34:24Z</time>
      </trkpt>
      <trkpt lat="47.78551" lon="-2.38991">
        <ele>31</ele>
        <time>2023-11-11T09:43:07Z</time>
      </trkpt>
      <trkpt lat="47.78248" lon="-2.3851">
        <ele>20</ele>
        <time>2023-11-11T09:52:58Z</time>
      </trkpt>
      <trkpt lat="47.78135" lon="-2.38652">
        <ele>16</ele>
        <time>2023-11-11T09:56:15Z</time>
      </trkpt>
      <trkpt lat="47.78032" lon="-2.38686">
        <ele>15</ele>
        <time>2023-11-11T09:58:36Z</time>
      </trkpt>
      <trkpt lat="47.7796" lon="-2.38648">
        <ele>15</ele>
        <time>2023-11-11T10:00:18Z</time>
      </trkpt>
      <trkpt lat="47.77893" lon="-2.38682">
        <ele>16</ele>
        <time>2023-11-11T10:01:52Z</time>
      </trkpt>
      <trkpt lat="47.77426" lon="-2.393">
        <ele>21</ele>
        <time>2023-11-11T10:15:46Z</time>
      </trkpt>
      <trkpt lat="47.77207" lon="-2.39317">
        <ele>22</ele>
        <time>2023-11-11T10:20:39Z</time>
      </trkpt>
      <trkpt lat="47.77112" lon="-2.39381">
        <ele>29</ele>
        <time>2023-11-11T10:22:58Z</time>
      </trkpt>
      <trkpt lat="47.77152" lon="-2.39669">
        <ele>43</ele>
        <time>2023-11-11T10:27:22Z</time>
      </trkpt>
      <trkpt lat="47.77074" lon="-2.39987">
        <ele>62</ele>
        <time>2023-11-11T10:32:26Z</time>
      </trkpt>
      <trkpt lat="47.77002" lon="-2.4003">
        <ele>66</ele>
        <time>2023-11-11T10:34:09Z</time>
      </trkpt>
      <trkpt lat="47.77019" lon="-2.4039">
        <ele>73</ele>
        <time>2023-11-11T10:39:33Z</time>
      </trkpt>
      <trkpt lat="47.77351" lon="-2.40489">
        <ele>69</ele>
        <time>2023-11-11T10:47:05Z</time>
      </trkpt>
      <trkpt lat="47.77406" lon="-2.40892">
        <ele>80</ele>
        <time>2023-11-11T10:53:13Z</time>
      </trkpt>
      <trkpt lat="47.7755" lon="-2.41137">
        <ele>69</ele>
        <time>2023-11-11T10:58:05Z</time>
      </trkpt>
      <trkpt lat="47.77501" lon="-2.41223">
        <ele>71</ele>
        <time>2023-11-11T10:59:46Z</time>
      </trkpt>
      <trkpt lat="47.77357" lon="-2.41004">
        <ele>80</ele>
        <time>2023-11-11T11:04:21Z</time>
      </trkpt>
      <trkpt lat="47.77221" lon="-2.40961">
        <ele>79</ele>
        <time>2023-11-11T11:07:27Z</time>
      </trkpt>
      <trkpt lat="47.77112" lon="-2.40871">
        <ele>80</ele>
        <time>2023-11-11T11:10:13Z</time>
      </trkpt>
      <trkpt lat="47.76976" lon="-2.40884">
        <ele>78</ele>
        <time>2023-11-11T11:13:15Z</time>
      </trkpt>
      <trkpt lat="47.76679" lon="-2.41034">
        <ele>71</ele>
        <time>2023-11-11T11:20:14Z</time>
      </trkpt>
      <trkpt lat="47.76517" lon="-2.41107">
        <ele>68</ele>
        <time>2023-11-11T11:23:59Z</time>
      </trkpt>
      <trkpt lat="47.76393" lon="-2.41253">
        <ele>64</ele>
        <time>2023-11-11T11:27:30Z</time>
      </trkpt>
      <trkpt lat="47.76315" lon="-2.41596">
        <ele>60</ele>
        <time>2023-11-11T11:32:55Z</time>
      </trkpt>
      <trkpt lat="47.76004" lon="-2.41566">
        <ele>64</ele>
        <time>2023-11-11T11:39:51Z</time>
      </trkpt>
      <trkpt lat="47.75814" lon="-2.41626">
        <ele>68</ele>
        <time>2023-11-11T11:44:10Z</time>
      </trkpt>
      <trkpt lat="47.7556" lon="-2.41604">
        <ele>78</ele>
        <time>2023-11-11T11:49:50Z</time>
      </trkpt>
      <trkpt lat="47.75565" lon="-2.41102">
        <ele>66</ele>
        <time>2023-11-11T11:57:20Z</time>
      </trkpt>
      <trkpt lat="47.75961" lon="-2.40875">
        <ele>62</ele>
        <time>2023-11-11T12:06:47Z</time>
      </trkpt>
      <trkpt lat="47.7624" lon="-2.40416">
        <ele>48</ele>
        <time>2023-11-11T12:16:02Z</time>
      </trkpt>
      <trkpt lat="47.76292" lon="-2.40399">
        <ele>52</ele>
        <time>2023-11-11T12:17:13Z</time>
      </trkpt>
      <trkpt lat="47.7639" lon="-2.40167">
        <ele>57</ele>
        <time>2023-11-11T12:21:19Z</time>
      </trkpt>
      <trkpt lat="47.7644" lon="-2.40051">
        <ele>60</ele>
        <time>2023-11-11T12:23:22Z</time>
      </trkpt>
      <trkpt lat="47.76529" lon="-2.39978">
        <ele>64</ele>
        <time>2023-11-11T12:25:38Z</time>
      </trkpt>
      <trkpt lat="47.76592" lon="-2.39725">
        <ele>59</ele>
        <time>2023-11-11T12:29:40Z</time>
      </trkpt>
      <trkpt lat="47.76647" lon="-2.39622">
        <ele>53</ele>
        <time>2023-11-11T12:31:38Z</time>
      </trkpt>
      <trkpt lat="47.76653" lon="-2.39407">
        <ele>49</ele>
        <time>2023-11-11T12:34:51Z</time>
      </trkpt>
      <trkpt lat="47.76523" lon="-2.39515">
        <ele>50</ele>
        <time>2023-11-11T12:38:10Z</time>
      </trkpt>
      <trkpt lat="47.76419" lon="-2.39502">
        <ele>50</ele>
        <time>2023-11-11T12:40:29Z</time>
      </trkpt>
      <trkpt lat="47.76079" lon="-2.38442">
        <ele>68</ele>
        <time>2023-11-11T12:58:02Z</time>
      </trkpt>
      <trkpt lat="47.75972" lon="-2.38115">
        <ele>67</ele>
        <time>2023-11-11T13:03:29Z</time>
      </trkpt>
      <trkpt lat="47.75943" lon="-2.37815">
        <ele>70</ele>
        <time>2023-11-11T13:08:00Z</time>
      </trkpt>
      <trkpt lat="47.75906" lon="-2.37592">
        <ele>71</ele>
        <time>2023-11-11T13:11:27Z</time>
      </trkpt>
      <trkpt lat="47.75886" lon="-2.37347">
        <ele>70</ele>
        <time>2023-11-11T13:15:08Z</time>
      </trkpt>
    </trkseg>
  </trk>
</gpx>